ADDS METAR Data INFO
IDs: Format: Raw Decoded Include TAF

Data at: 0308 UTC 16 Aug 2018

PAGY 160253Z AUTO 20010G18KT 10SM OVC070 15/07 A3002 RMK AO2 SLP165 T01500072 55006 TSNO
PAGY 160153Z AUTO 20011G19KT 10SM OVC070 16/07 A3001 RMK AO2 SLP163 T01560067 TSNO
PAGY 160053Z AUTO 20011KT 10SM OVC060 16/07 A3002 RMK AO2 SLP167 T01560067 TSNO
PAGY 152353Z AUTO 20014KT 10SM OVC055 16/07 A3004 RMK AO2 SLP172 T01610072 10161 20133 58004 TSNO
PAGY 152253Z AUTO 20015KT 10SM OVC060 16/07 A3005 RMK AO2 SLP175 T01560072 TSNO
PAGY 152153Z AUTO 20014KT 10SM OVC065 16/07 A3006 RMK AO2 SLP178 T01560072 TSNO
PAGY 152053Z AUTO 21017KT 10SM SCT050 OVC070 14/08 A3005 RMK AO2 SLP176 T01440078 50001 TSNO
PAGY 151953Z AUTO 20014KT 10SM SCT050 OVC070 14/08 A3006 RMK AO2 SLP180 T01390078 TSNO
PAGY 151853Z AUTO 20014G22KT 10SM BKN049 OVC070 14/08 A3005 RMK AO2 SLP177 T01390078 TSNO
PAGY 151753Z AUTO 21017KT 10SM OVC048 13/08 A3005 RMK AO2 SLP175 T01330078 10133 20128 52010 TSNO
PAGY 151653Z AUTO 20017KT 10SM OVC050 13/08 A3004 RMK AO2 SLP171 T01330078 TSNO
PAGY 151553Z AUTO 20014G23KT 10SM OVC055 13/08 A3003 RMK AO2 SLP169 T01330083 TSNO
PAGY 151453Z AUTO 20015KT 10SM OVC060 13/08 A3002 RMK AO2 PK WND 21029/1420 SLP165 T01330083 53008 TSNO
PAGY 151353Z AUTO 20016KT 10SM OVC065 13/08 A3001 RMK AO2 SLP161 T01280083 TSNO
PAGY 151253Z AUTO 20011G16KT 10SM SCT050 OVC065 13/08 A2999 RMK AO2 SLP155 T01330078 TSNO
PAGY 151153Z AUTO 20014G22KT 10SM OVC050 13/08 A2999 RMK AO2 SLP156 T01330078 10144 20133 53017 TSNO
PAGY 151053Z AUTO 20016G24KT 10SM BKN065 OVC100 13/08 A2997 RMK AO2 SLP148 T01330083 TSNO
PAGY 150953Z AUTO 20018G23KT 10SM FEW037 OVC095 13/08 A2996 RMK AO2 SLP145 T01330083 TSNO
PAGY 150853Z AUTO 20015KT 10SM OVC065 14/08 A2994 RMK AO2 SLP139 T01390078 401780133 53013 TSNO
PAGY 150753Z AUTO 20016G23KT 10SM BKN075 BKN090 14/08 A2993 RMK AO2 SLP134 T01390078 TSNO
PAGY 150653Z AUTO 21017G24KT 10SM BKN070 OVC090 14/08 A2990 RMK AO2 SLP126 T01390083 TSNO
PAGY 150553Z AUTO 20015KT 10SM BKN075 14/09 A2990 RMK AO2 PK WND 21026/0540 SLP126 T01440089 10167 20144 53015 TSNO
PAGY 150453Z AUTO 21018G26KT 10SM OVC080 15/09 A2988 RMK AO2 PK WND 21026/0448 SLP119 T01500089 TSNO
PAGY 150353Z AUTO 20017G23KT 10SM OVC090 15/09 A2987 RMK AO2 PK WND 19026/0304 SLP114 T01500089 TSNO
PAGY 150253Z AUTO 20019G24KT 10SM FEW060 BKN090 16/08 A2986 RMK AO2 PK WND 19026/0236 SLP112 T01560083 51005 TSNO
PAGY 150153Z AUTO 20016G26KT 10SM CLR 16/08 A2986 RMK AO2 PK WND 21026/0145 SLP110 T01610078 TSNO
PAGY 150053Z AUTO 21018KT 10SM OVC075 15/08 A2985 RMK AO2 PK WND 22028/0021 SLP110 T01500078 TSNO
PAGY 142353Z AUTO 21018G25KT 10SM OVC080 15/07 A2985 RMK AO2 PK WND 21027/2258 SLP107 T01500072 10178 20150 53004 TSNO
PAGY 142253Z AUTO 21021G29KT 10SM SCT060 OVC080 16/08 A2983 RMK AO2 PK WND 21032/2238 SLP103 T01560078 TSNO
PAGY 142153Z AUTO 21020G28KT 10SM OVC070 17/08 A2983 RMK AO2 PK WND 21028/2144 SLP102 T01670083 TSNO
PAGY 142053Z AUTO 20016G27KT 10SM FEW070 FEW090 17/09 A2983 RMK AO2 PK WND 20027/2012 SLP103 T01720089 53015 TSNO
PAGY 141953Z AUTO 20021G27KT 10SM SCT070 BKN090 17/09 A2981 RMK AO2 PK WND 22029/1926 SLP094 T01720094 TSNO
PAGY 141853Z AUTO 20018G27KT 10SM BKN070 OVC085 17/10 A2980 RMK AO2 PK WND 19030/1830 SLP091 T01670100 TSNO
PAGY 141753Z AUTO 20020G32KT 10SM BKN070 OVC085 16/11 A2979 RMK AO2 PK WND 20032/1700 SLP088 60000 T01610106 10167 20133 51015 TSNO
PAGY 141653Z AUTO 21024G30KT 10SM SCT050 OVC065 15/12 A2977 RMK AO2 PK WND 21033/1615 SLP082 T01500117 TSNO
PAGY 141553Z AUTO 20023G32KT 10SM FEW014 BKN065 14/12 A2976 RMK AO2 PK WND 21037/1513 SLP078 T01440117 TSNO
PAGY 141542Z AUTO 20021G33KT 10SM SCT012 SCT055 BKN070 14/12 A2976 RMK AO2 PK WND 21037/1513 T01440117 TSNO